Wetterdaten: Woche 04.07.16 - 10.07.16 (KW27)
Datum Zeit Temp. Aussen Temp. o. S. +5cm Feuchte Auss BlattFeu 1 Luftdruck Regen Sonnenschein Regendauer Solar Windben Empfang
04.07.2016 00:00 14,7 C 14,1 C 12,5 C 87 % 0 lf 1020,9 hPa 0,0 l/m 0,00 h 0,00 h 0 W/m 3,8 km/h (1 Bft) 96,44 %
04.07.2016 01:00 14,3 C 14,2 C 12,6 C 88 % 0 lf 1020,8 hPa 0,0 l/m 0,00 h 0,00 h 0 W/m 6,3 km/h (2 Bft) 97,77 %
04.07.2016 02:00 14,2 C 14,0 C 12,3 C 89 % 0 lf 1020,6 hPa 0,0 l/m 0,00 h 0,00 h 0 W/m 7,6 km/h (2 Bft) 94,84 %
04.07.2016 03:00 14,0 C 12,9 C 11,4 C 89 % 0 lf 1020,3 hPa 0,0 l/m 0,00 h 0,00 h 5 W/m 6,9 km/h (2 Bft) 94,65 %
04.07.2016 04:00 13,1 C 12,0 C 10,6 C 90 % 1 lf 1020,1 hPa 0,0 l/m 0,00 h 0,00 h 0 W/m 6,1 km/h (2 Bft) 98,66 %
04.07.2016 05:00 12,4 C 12,1 C 10,7 C 92 % 1 lf 1020,0 hPa 0,0 l/m 0,17 h 0,00 h 12 W/m 1,3 km/h (1 Bft) 94,03 %
04.07.2016 06:00 12,7 C 13,4 C 12,3 C 94 % 0 lf 1020,2 hPa 0,0 l/m 0,13 h 0,00 h 47 W/m 6,1 km/h (2 Bft) 97,02 %
04.07.2016 07:00 13,5 C 15,0 C 14,0 C 94 % 0 lf 1020,2 hPa 0,0 l/m 0,40 h 0,00 h 142 W/m 8,8 km/h (2 Bft) 95,02 %
04.07.2016 08:00 14,8 C 17,9 C 15,7 C 91 % 0 lf 1020,3 hPa 0,0 l/m 0,53 h 0,00 h 245 W/m 8,1 km/h (2 Bft) 96,15 %
04.07.2016 09:00 17,3 C 23,1 C 17,9 C 82 % 0 lf 1020,2 hPa 0,0 l/m 0,97 h 0,00 h 445 W/m 10,6 km/h (2 Bft) 97,23 %
04.07.2016 10:00 20,5 C 27,2 C 25,6 C 70 % 0 lf 1020,0 hPa 0,0 l/m 1,00 h 0,00 h 810 W/m 12,1 km/h (2 Bft) 96,89 %
04.07.2016 11:00 21,6 C 27,5 C 25,7 C 67 % 0 lf 1019,8 hPa 0,0 l/m 0,97 h 0,00 h 827 W/m 14,1 km/h (3 Bft) 94,00 %
04.07.2016 12:00 22,0 C 24,6 C 23,8 C 66 % 0 lf 1019,5 hPa 0,0 l/m 0,17 h 0,00 h 358 W/m 9,6 km/h (2 Bft) 98,09 %
04.07.2016 13:00 21,5 C 23,2 C 23,0 C 70 % 0 lf 1019,2 hPa 0,0 l/m 0,20 h 0,03 h 342 W/m 11,2 km/h (2 Bft) 96,19 %
04.07.2016 14:00 20,7 C 22,0 C 21,4 C 72 % 0 lf 1019,1 hPa 0,0 l/m 0,00 h 0,00 h 240 W/m 8,5 km/h (2 Bft) 93,82 %
04.07.2016 15:00 20,1 C 20,0 C 19,6 C 79 % 5 lf 1018,7 hPa 0,4 l/m 0,00 h 0,33 h 196 W/m 10,6 km/h (2 Bft) 97,97 %
04.07.2016 16:00 19,2 C 19,1 C 17,9 C 87 % 13 lf 1018,4 hPa 3,6 l/m 0,53 h 0,40 h 281 W/m 6,4 km/h (2 Bft) 96,38 %
04.07.2016 17:00 19,9 C 23,5 C 20,1 C 86 % 0 lf 1017,9 hPa 0,0 l/m 0,93 h 0,00 h 577 W/m 9,0 km/h (2 Bft) 94,02 %
04.07.2016 18:00 20,5 C 21,6 C 18,7 C 82 % 0 lf 1017,3 hPa 0,0 l/m 1,00 h 0,00 h 456 W/m 7,1 km/h (2 Bft) 97,51 %
04.07.2016 19:00 20,5 C 21,1 C 18,3 C 79 % 0 lf 1017,0 hPa 0,0 l/m 0,53 h 0,00 h 198 W/m 5,2 km/h (1 Bft) 96,37 %
04.07.2016 20:00 20,5 C 20,5 C 17,8 C 78 % 0 lf 1016,6 hPa 0,0 l/m 0,77 h 0,00 h 103 W/m 2,7 km/h (1 Bft) 95,37 %
04.07.2016 21:00 19,9 C 18,4 C 15,8 C 81 % 0 lf 1016,4 hPa 0,0 l/m 0,27 h 0,00 h 20 W/m 1,5 km/h (1 Bft) 97,08 %
04.07.2016 22:00 18,5 C 17,0 C 14,8 C 85 % 0 lf 1016,3 hPa 0,0 l/m 0,00 h 0,00 h 6 W/m 1,6 km/h (1 Bft) 96,43 %
04.07.2016 23:00 17,4 C 16,0 C 14,2 C 89 % 1 lf 1016,2 hPa 0,0 l/m 0,00 h 0,00 h 0 W/m 0,2 km/h (0 Bft) 96,23 %
05.07.2016 00:00 16,5 C 15,7 C 14,1 C 90 % 2 lf 1015,9 hPa 0,0 l/m 0,00 h 0,00 h 0 W/m 0,2 km/h (0 Bft) 95,63 %
05.07.2016 01:00 16,4 C 16,8 C 14,8 C 93 % 0 lf 1015,8 hPa 0,0 l/m 0,00 h 0,00 h 0 W/m 4,2 km/h (1 Bft) 95,73 %
05.07.2016 02:00 16,9 C 17,7 C 15,8 C 94 % 0 lf 1015,4 hPa 0,0 l/m 0,00 h 0,00 h 0 W/m 10,8 km/h (2 Bft) 96,80 %
05.07.2016 03:00 17,4 C 17,5 C 15,9 C 91 % 0 lf 1015,0 hPa 0,0 l/m 0,00 h 0,00 h 0 W/m 12,0 km/h (2 Bft) 96,44 %
05.07.2016 04:00 16,8 C 16,7 C 15,1 C 87 % 0 lf 1014,7 hPa 0,0 l/m 0,00 h 0,00 h 0 W/m 12,1 km/h (2 Bft) 95,56 %
05.07.2016 05:00 16,4 C 16,1 C 14,5 C 86 % 0 lf 1014,6 hPa 0,0 l/m 0,00 h 0,00 h 8 W/m 8,1 km/h (2 Bft) 95,87 %
05.07.2016 06:00 16,2 C 16,5 C 15,2 C 88 % 0 lf 1014,5 hPa 0,0 l/m 0,00 h 0,00 h 37 W/m 8,5 km/h (2 Bft) 97,30 %
05.07.2016 07:00 16,7 C 17,5 C 16,3 C 90 % 0 lf 1014,5 hPa 0,0 l/m 0,00 h 0,00 h 84 W/m 12,5 km/h (3 Bft) 95,27 %
05.07.2016 08:00 17,2 C 18,6 C 17,4 C 85 % 0 lf 1014,6 hPa 0,0 l/m 0,07 h 0,00 h 161 W/m 16,4 km/h (3 Bft) 95,95 %
05.07.2016 09:00 17,8 C 19,0 C 17,9 C 82 % 0 lf 1014,7 hPa 0,0 l/m 0,00 h 0,00 h 164 W/m 19,2 km/h (3 Bft) 95,85 %
05.07.2016 10:00 17,7 C 18,8 C 17,8 C 83 % 0 lf 1014,8 hPa 0,0 l/m 0,00 h 0,00 h 193 W/m 26,1 km/h (4 Bft) 98,00 %
05.07.2016 11:00 18,1 C 20,0 C 19,2 C 83 % 0 lf 1014,7 hPa 0,0 l/m 0,17 h 0,00 h 290 W/m 26,1 km/h (4 Bft) 92,95 %
05.07.2016 12:00 18,7 C 20,1 C 19,2 C 80 % 0 lf 1014,8 hPa 0,0 l/m 0,10 h 0,00 h 239 W/m 27,3 km/h (4 Bft) 97,22 %
05.07.2016 13:00 18,9 C 22,0 C 20,7 C 82 % 0 lf 1014,8 hPa 0,0 l/m 0,30 h 0,07 h 403 W/m 25,5 km/h (4 Bft) 97,58 %
05.07.2016 14:00 19,3 C 19,5 C 19,0 C 85 % 12 lf 1014,5 hPa 1,4 l/m 0,20 h 0,33 h 350 W/m 17,9 km/h (3 Bft) 94,09 %
05.07.2016 15:00 19,1 C 20,9 C 21,8 C 89 % 6 lf 1014,3 hPa 0,2 l/m 0,67 h 0,17 h 605 W/m 23,5 km/h (4 Bft) 96,65 %
05.07.2016 16:00 20,6 C 23,3 C 23,5 C 79 % 0 lf 1014,3 hPa 0,0 l/m 0,50 h 0,00 h 335 W/m 25,5 km/h (4 Bft) 98,44 %
05.07.2016 17:00 20,1 C 21,5 C 20,2 C 75 % 0 lf 1014,9 hPa 0,0 l/m 0,47 h 0,00 h 310 W/m 31,2 km/h (5 Bft) 93,87 %
05.07.2016 18:00 19,4 C 19,9 C 18,8 C 76 % 0 lf 1015,4 hPa 0,0 l/m 0,13 h 0,10 h 178 W/m 29,5 km/h (5 Bft) 96,51 %
05.07.2016 19:00 18,4 C 18,9 C 17,7 C 76 % 0 lf 1016,1 hPa 0,0 l/m 0,10 h 0,00 h 129 W/m 27,1 km/h (4 Bft) 97,37 %
05.07.2016 20:00 17,5 C 17,4 C 15,9 C 74 % 0 lf 1016,7 hPa 0,0 l/m 0,67 h 0,00 h 99 W/m 23,4 km/h (4 Bft) 94,87 %
05.07.2016 21:00 16,3 C 15,5 C 13,9 C 76 % 0 lf 1017,5 hPa 0,0 l/m 0,00 h 0,00 h 17 W/m 17,6 km/h (3 Bft) 95,73 %
05.07.2016 22:00 14,9 C 13,5 C 11,9 C 79 % 0 lf 1017,8 hPa 0,0 l/m 0,00 h 0,00 h 5 W/m 9,2 km/h (2 Bft) 96,80 %
05.07.2016 23:00 13,7 C 12,4 C 11,0 C 83 % 0 lf 1018,0 hPa 0,0 l/m 0,00 h 0,00 h 4 W/m 8,0 km/h (2 Bft) 94,59 %
06.07.2016 00:00 12,8 C 11,7 C 10,3 C 87 % 0 lf 1018,2 hPa 0,0 l/m 0,00 h 0,00 h 5 W/m 7,5 km/h (2 Bft) 98,27 %
06.07.2016 01:00 12,1 C 11,3 C 10,0 C 90 % 0 lf 1018,5 hPa 0,0 l/m 0,00 h 0,00 h 0 W/m 7,3 km/h (2 Bft) 95,01 %
06.07.2016 02:00 11,6 C 10,6 C 9,4 C 91 % 1 lf 1018,5 hPa 0,0 l/m 0,00 h 0,00 h 4 W/m 5,0 km/h (1 Bft) 95,17 %
06.07.2016 03:00 11,0 C 10,0 C 8,9 C 92 % 4 lf 1018,5 hPa 0,0 l/m 0,00 h 0,00 h 3 W/m 4,7 km/h (1 Bft) 97,16 %
06.07.2016 04:00 10,7 C 10,0 C 8,9 C 93 % 10 lf 1018,7 hPa 0,0 l/m 0,00 h 0,00 h 2 W/m 4,4 km/h (1 Bft) 96,87 %
06.07.2016 05:00 10,7 C 10,8 C 10,0 C 94 % 8 lf 1019,1 hPa 0,0 l/m 0,00 h 0,07 h 6 W/m 4,2 km/h (1 Bft) 95,44 %
06.07.2016 06:00 11,6 C 12,1 C 11,2 C 96 % 1 lf 1019,0 hPa 0,0 l/m 0,00 h 0,07 h 22 W/m 6,8 km/h (2 Bft) 96,65 %
06.07.2016 07:00 12,1 C 13,3 C 12,0 C 96 % 0 lf 1019,1 hPa 0,0 l/m 0,40 h 0,00 h 163 W/m 4,7 km/h (1 Bft) 95,23 %
06.07.2016 08:00 13,3 C 16,9 C 14,7 C 94 % 0 lf 1019,5 hPa 0,0 l/m 0,80 h 0,00 h 294 W/m 7,9 km/h (2 Bft) 96,72 %
06.07.2016 09:00 16,1 C 22,2 C 17,2 C 84 % 0 lf 1019,9 hPa 0,0 l/m 1,00 h 0,00 h 419 W/m 11,2 km/h (2 Bft) 95,80 %
06.07.2016 10:00 18,0 C 26,1 C 22,1 C 75 % 0 lf 1020,1 hPa 0,0 l/m 1,00 h 0,00 h 551 W/m 11,7 km/h (2 Bft) 94,80 %
06.07.2016 11:00 19,6 C 28,0 C 23,7 C 66 % 0 lf 1020,5 hPa 0,0 l/m 1,00 h 0,00 h 813 W/m 15,8 km/h (3 Bft) 97,72 %
06.07.2016 12:00 20,1 C 27,2 C 22,8 C 63 % 0 lf 1020,6 hPa 0,0 l/m 0,63 h 0,00 h 612 W/m 16,1 km/h (3 Bft) 97,66 %
06.07.2016 13:00 20,7 C 26,7 C 22,4 C 60 % 0 lf 1020,7 hPa 0,0 l/m 0,53 h 0,00 h 564 W/m 15,9 km/h (3 Bft) 92,31 %
06.07.2016 14:00 21,4 C 27,3 C 24,9 C 58 % 0 lf 1020,6 hPa 0,0 l/m 0,67 h 0,00 h 679 W/m 17,6 km/h (3 Bft) 98,79 %
06.07.2016 15:00 21,6 C 27,0 C 26,5 C 57 % 0 lf 1020,5 hPa 0,0 l/m 0,53 h 0,00 h 585 W/m 15,1 km/h (3 Bft) 96,09 %
06.07.2016 16:00 21,7 C 25,7 C 25,8 C 56 % 0 lf 1020,5 hPa 0,0 l/m 0,60 h 0,00 h 476 W/m 16,6 km/h (3 Bft) 94,94 %
06.07.2016 17:00 21,8 C 24,8 C 23,3 C 56 % 0 lf 1020,1 hPa 0,0 l/m 0,83 h 0,00 h 423 W/m 16,9 km/h (3 Bft) 96,65 %
06.07.2016 18:00 20,9 C 22,1 C 20,1 C 60 % 0 lf 1020,1 hPa 0,0 l/m 0,67 h 0,00 h 345 W/m 15,8 km/h (3 Bft) 96,51 %
06.07.2016 19:00 20,0 C 20,4 C 18,6 C 61 % 0 lf 1020,4 hPa 0,0 l/m 0,93 h 0,00 h 235 W/m 17,1 km/h (3 Bft) 95,22 %
06.07.2016 20:00 19,1 C 18,9 C 17,3 C 64 % 0 lf 1020,5 hPa 0,0 l/m 0,60 h 0,00 h 106 W/m 15,0 km/h (3 Bft) 96,65 %
06.07.2016 21:00 17,7 C 16,6 C 15,1 C 67 % 0 lf 1020,9 hPa 0,0 l/m 0,20 h 0,00 h 20 W/m 10,4 km/h (2 Bft) 96,37 %
06.07.2016 22:00 16,3 C 14,3 C 12,6 C 72 % 0 lf 1021,0 hPa 0,0 l/m 0,00 h 0,00 h 5 W/m 2,9 km/h (1 Bft) 96,16 %
06.07.2016 23:00 14,8 C 12,8 C 11,6 C 78 % 0 lf 1021,3 hPa 0,0 l/m 0,00 h 0,00 h 5 W/m 0,3 km/h (0 Bft) 94,81 %
07.07.2016 00:00 13,7 C 11,9 C 10,9 C 81 % 0 lf 1021,6 hPa 0,0 l/m 0,00 h 0,00 h 5 W/m 0,0 km/h (0 Bft) 97,60 %
07.07.2016 01:00 12,9 C 11,7 C 10,4 C 84 % 0 lf 1021,6 hPa 0,0 l/m 0,00 h 0,00 h 5 W/m 0,0 km/h (0 Bft) 95,73 %
07.07.2016 02:00 12,2 C 10,6 C 9,8 C 87 % 0 lf 1021,2 hPa 0,0 l/m 0,00 h 0,00 h 5 W/m 0,0 km/h (0 Bft) 97,08 %
07.07.2016 03:00 11,4 C 9,7 C 9,2 C 89 % 1 lf 1021,0 hPa 0,0 l/m 0,00 h 0,00 h 5 W/m 0,0 km/h (0 Bft) 94,02 %
07.07.2016 04:00 10,7 C 9,2 C 8,5 C 91 % 4 lf 1020,8 hPa 0,0 l/m 0,00 h 0,00 h 5 W/m 0,0 km/h (0 Bft) 97,27 %
07.07.2016 05:00 10,1 C 8,5 C 8,3 C 92 % 13 lf 1020,9 hPa 0,0 l/m 0,30 h 0,00 h 30 W/m 0,0 km/h (0 Bft) 97,37 %
07.07.2016 06:00 9,8 C 9,2 C 8,6 C 93 % 15 lf 1021,3 hPa 0,0 l/m 1,00 h 0,00 h 110 W/m 0,0 km/h (0 Bft) 95,02 %
07.07.2016 07:00 10,4 C 11,4 C 10,2 C 95 % 10 lf 1021,8 hPa 0,0 l/m 1,00 h 0,00 h 264 W/m 2,2 km/h (1 Bft) 95,73 %
07.07.2016 08:00 12,6 C 18,5 C 12,9 C 96 % 0 lf 1022,0 hPa 0,0 l/m 1,00 h 0,00 h 445 W/m 4,3 km/h (1 Bft) 97,06 %
07.07.2016 09:00 16,7 C 28,6 C 15,9 C 76 % 0 lf 1022,0 hPa 0,0 l/m 1,00 h 0,00 h 598 W/m 6,4 km/h (2 Bft) 95,52 %
07.07.2016 10:00 19,6 C 28,6 C 24,2 C 62 % 0 lf 1021,7 hPa 0,0 l/m 1,00 h 0,00 h 722 W/m 7,8 km/h (2 Bft) 97,15 %
07.07.2016 11:00 21,3 C 30,3 C 25,3 C 58 % 0 lf 1021,4 hPa 0,0 l/m 1,00 h 0,00 h 774 W/m 8,5 km/h (2 Bft) 96,08 %
07.07.2016 12:00 22,2 C 29,7 C 25,7 C 57 % 0 lf 1020,9 hPa 0,0 l/m 0,90 h 0,00 h 789 W/m 13,9 km/h (3 Bft) 95,66 %
07.07.2016 13:00 23,4 C 29,2 C 25,2 C 54 % 0 lf 1020,6 hPa 0,0 l/m 1,00 h 0,00 h 733 W/m 13,5 km/h (3 Bft) 96,59 %
07.07.2016 14:00 23,2 C 27,6 C 26,3 C 55 % 0 lf 1020,3 hPa 0,0 l/m 1,00 h 0,00 h 631 W/m 11,9 km/h (2 Bft) 95,16 %
07.07.2016 15:00 23,4 C 26,7 C 25,7 C 57 % 0 lf 1019,7 hPa 0,0 l/m 0,97 h 0,00 h 493 W/m 11,9 km/h (2 Bft) 96,36 %
07.07.2016 16:00 23,4 C 25,9 C 24,9 C 58 % 0 lf 1019,4 hPa 0,0 l/m 1,00 h 0,00 h 410 W/m 13,8 km/h (3 Bft) 97,15 %
07.07.2016 17:00 23,1 C 24,6 C 23,4 C 60 % 0 lf 1019,2 hPa 0,0 l/m 0,80 h 0,00 h 300 W/m 13,1 km/h (3 Bft) 94,16 %
07.07.2016 18:00 22,5 C 23,3 C 22,0 C 62 % 0 lf 1018,7 hPa 0,0 l/m 0,27 h 0,00 h 184 W/m 6,6 km/h (2 Bft) 98,25 %
07.07.2016 19:00 21,9 C 21,7 C 20,1 C 65 % 0 lf 1018,3 hPa 0,0 l/m 0,00 h 0,00 h 92 W/m 4,5 km/h (1 Bft) 93,95 %
07.07.2016 20:00 21,1 C 21,3 C 19,7 C 69 % 0 lf 1018,0 hPa 0,0 l/m 0,50 h 0,00 h 81 W/m 3,5 km/h (1 Bft) 96,58 %
07.07.2016 21:00 20,7 C 19,5 C 17,6 C 73 % 0 lf 1017,8 hPa 0,0 l/m 0,50 h 0,00 h 30 W/m 0,6 km/h (0 Bft) 96,37 %
07.07.2016 22:00 19,6 C 18,5 C 16,7 C 77 % 0 lf 1017,6 hPa 0,0 l/m 0,00 h 0,00 h 12 W/m 2,0 km/h (1 Bft) 94,80 %
07.07.2016 23:00 18,7 C 17,9 C 16,0 C 81 % 0 lf 1017,4 hPa 0,0 l/m 0,00 h 0,00 h 0 W/m 0,6 km/h (0 Bft) 97,36 %
08.07.2016 00:00 18,0 C 17,0 C 15,5 C 83 % 0 lf 1017,3 hPa 0,0 l/m 0,00 h 0,00 h 0 W/m 3,7 km/h (1 Bft) 93,65 %
08.07.2016 01:00 17,4 C 16,7 C 15,0 C 85 % 0 lf 1017,0 hPa 0,0 l/m 0,00 h 0,00 h 0 W/m 2,4 km/h (1 Bft) 93,24 %
08.07.2016 02:00 17,1 C 17,2 C 15,0 C 85 % 0 lf 1016,6 hPa 0,0 l/m 0,00 h 0,00 h 0 W/m 6,4 km/h (2 Bft) 98,86 %
08.07.2016 03:00 17,0 C 17,1 C 15,0 C 84 % 0 lf 1016,0 hPa 0,0 l/m 0,00 h 0,00 h 0 W/m 7,9 km/h (2 Bft) 97,01 %
08.07.2016 04:00 16,9 C 16,7 C 15,0 C 84 % 0 lf 1015,4 hPa 0,0 l/m 0,00 h 0,00 h 0 W/m 9,0 km/h (2 Bft) 92,91 %
08.07.2016 05:00 16,8 C 16,5 C 14,8 C 84 % 0 lf 1015,1 hPa 0,0 l/m 0,27 h 0,00 h 18 W/m 9,9 km/h (2 Bft) 97,70 %
08.07.2016 06:00 16,4 C 16,5 C 15,0 C 87 % 0 lf 1014,7 hPa 0,0 l/m 0,70 h 0,00 h 77 W/m 9,4 km/h (2 Bft) 97,44 %
08.07.2016 07:00 16,5 C 17,3 C 15,8 C 89 % 0 lf 1014,5 hPa 0,0 l/m 0,77 h 0,00 h 197 W/m 10,7 km/h (2 Bft) 93,88 %
08.07.2016 08:00 18,0 C 20,1 C 18,4 C 87 % 0 lf 1014,3 hPa 0,0 l/m 1,00 h 0,00 h 287 W/m 10,6 km/h (2 Bft) 97,58 %
08.07.2016 09:00 19,7 C 21,9 C 20,8 C 83 % 0 lf 1014,0 hPa 0,0 l/m 0,03 h 0,00 h 235 W/m 9,5 km/h (2 Bft) 95,36 %
08.07.2016 10:00 21,4 C 24,7 C 22,9 C 75 % 0 lf 1013,9 hPa 0,0 l/m 0,87 h 0,00 h 395 W/m 21,1 km/h (4 Bft) 96,30 %
08.07.2016 11:00 22,8 C 26,1 C 24,4 C 71 % 0 lf 1014,1 hPa 0,0 l/m 0,77 h 0,00 h 461 W/m 22,4 km/h (4 Bft) 96,08 %
08.07.2016 12:00 23,8 C 28,3 C 25,9 C 66 % 0 lf 1014,2 hPa 0,0 l/m 1,00 h 0,00 h 548 W/m 23,6 km/h (4 Bft) 97,31 %
08.07.2016 13:00 24,7 C 28,7 C 26,7 C 62 % 0 lf 1014,3 hPa 0,0 l/m 1,00 h 0,00 h 586 W/m 26,4 km/h (4 Bft) 95,66 %
08.07.2016 14:00 23,8 C 25,6 C 24,7 C 64 % 0 lf 1014,6 hPa 0,0 l/m 0,10 h 0,00 h 362 W/m 23,7 km/h (4 Bft) 94,81 %
08.07.2016 15:00 23,5 C 25,5 C 24,6 C 67 % 0 lf 1014,4 hPa 0,0 l/m 0,13 h 0,00 h 358 W/m 18,1 km/h (3 Bft) 96,99 %
08.07.2016 16:00 24,2 C 27,6 C 27,1 C 65 % 0 lf 1014,5 hPa 0,0 l/m 1,00 h 0,00 h 493 W/m 23,4 km/h (4 Bft) 97,58 %
08.07.2016 17:00 24,0 C 26,7 C 25,1 C 63 % 0 lf 1014,6 hPa 0,0 l/m 0,97 h 0,00 h 391 W/m 17,7 km/h (3 Bft) 93,87 %
08.07.2016 18:00 23,6 C 24,7 C 23,2 C 63 % 0 lf 1014,8 hPa 0,0 l/m 0,73 h 0,00 h 292 W/m 16,7 km/h (3 Bft) 97,87 %
08.07.2016 19:00 22,8 C 23,1 C 21,2 C 67 % 0 lf 1015,1 hPa 0,0 l/m 0,97 h 0,00 h 275 W/m 16,9 km/h (3 Bft) 96,08 %
08.07.2016 20:00 22,1 C 21,7 C 19,7 C 70 % 0 lf 1015,6 hPa 0,0 l/m 1,00 h 0,00 h 113 W/m 13,0 km/h (3 Bft) 95,69 %
08.07.2016 21:00 21,0 C 19,7 C 17,4 C 74 % 0 lf 1016,0 hPa 0,0 l/m 0,60 h 0,00 h 31 W/m 7,1 km/h (2 Bft) 96,09 %
08.07.2016 22:00 19,6 C 17,5 C 15,3 C 78 % 0 lf 1016,4 hPa 0,0 l/m 0,00 h 0,00 h 14 W/m 2,3 km/h (1 Bft) 97,01 %
08.07.2016 23:00 18,1 C 17,1 C 15,2 C 84 % 0 lf 1016,8 hPa 0,0 l/m 0,00 h 0,00 h 0 W/m 5,5 km/h (1 Bft) 95,20 %
09.07.2016 00:00 17,6 C 17,2 C 15,6 C 87 % 0 lf 1017,2 hPa 0,0 l/m 0,00 h 0,00 h 0 W/m 10,7 km/h (2 Bft) 97,21 %
09.07.2016 01:00 17,3 C 16,9 C 15,1 C 87 % 0 lf 1017,6 hPa 0,0 l/m 0,00 h 0,00 h 0 W/m 13,9 km/h (3 Bft) 94,54 %
09.07.2016 02:00 17,0 C 16,7 C 15,1 C 89 % 0 lf 1017,8 hPa 0,0 l/m 0,00 h 0,00 h 0 W/m 10,8 km/h (2 Bft) 97,46 %
09.07.2016 03:00 17,1 C 17,2 C 15,9 C 91 % 0 lf 1018,0 hPa 0,0 l/m 0,00 h 0,00 h 0 W/m 10,6 km/h (2 Bft) 97,65 %
09.07.2016 04:00 17,3 C 17,5 C 16,1 C 90 % 0 lf 1018,1 hPa 0,0 l/m 0,00 h 0,00 h 0 W/m 10,6 km/h (2 Bft) 94,02 %
09.07.2016 05:00 17,4 C 17,2 C 16,1 C 90 % 0 lf 1018,1 hPa 0,0 l/m 0,17 h 0,00 h 16 W/m 7,6 km/h (2 Bft) 96,16 %
09.07.2016 06:00 17,4 C 17,6 C 16,2 C 90 % 0 lf 1018,5 hPa 0,0 l/m 0,00 h 0,00 h 35 W/m 9,1 km/h (2 Bft) 98,43 %
09.07.2016 07:00 17,5 C 18,2 C 17,0 C 90 % 0 lf 1018,6 hPa 0,0 l/m 0,00 h 0,00 h 83 W/m 10,4 km/h (2 Bft) 94,47 %
09.07.2016 08:00 18,1 C 20,0 C 18,4 C 88 % 0 lf 1018,9 hPa 0,0 l/m 0,47 h 0,00 h 197 W/m 12,1 km/h (2 Bft) 95,91 %
09.07.2016 09:00 19,1 C 22,2 C 19,9 C 84 % 0 lf 1019,1 hPa 0,0 l/m 0,50 h 0,00 h 289 W/m 13,8 km/h (3 Bft) 95,92 %
09.07.2016 10:00 19,6 C 22,8 C 21,6 C 83 % 0 lf 1019,4 hPa 0,0 l/m 0,43 h 0,00 h 340 W/m 14,8 km/h (3 Bft) 97,33 %
09.07.2016 11:00 21,5 C 26,8 C 24,6 C 78 % 0 lf 1019,4 hPa 0,0 l/m 0,57 h 0,00 h 487 W/m 14,4 km/h (3 Bft) 93,98 %
09.07.2016 12:00 22,8 C 27,9 C 25,6 C 72 % 0 lf 1019,1 hPa 0,0 l/m 0,60 h 0,00 h 640 W/m 17,8 km/h (3 Bft) 97,08 %
09.07.2016 13:00 23,7 C 28,9 C 25,8 C 68 % 0 lf 1018,9 hPa 0,0 l/m 0,67 h 0,00 h 638 W/m 18,2 km/h (3 Bft) 97,04 %
09.07.2016 14:00 24,6 C 29,9 C 29,1 C 65 % 0 lf 1018,6 hPa 0,0 l/m 0,70 h 0,00 h 673 W/m 17,4 km/h (3 Bft) 94,74 %
09.07.2016 15:00 25,1 C 29,2 C 29,9 C 63 % 0 lf 1018,3 hPa 0,0 l/m 0,53 h 0,00 h 580 W/m 17,4 km/h (3 Bft) 95,54 %
09.07.2016 16:00 25,5 C 29,8 C 32,2 C 62 % 0 lf 1018,0 hPa 0,0 l/m 0,87 h 0,00 h 703 W/m 17,8 km/h (3 Bft) 98,51 %
09.07.2016 17:00 25,6 C 28,0 C 26,9 C 62 % 0 lf 1017,7 hPa 0,0 l/m 0,73 h 0,00 h 452 W/m 16,8 km/h (3 Bft) 93,46 %
09.07.2016 18:00 25,2 C 26,2 C 25,5 C 65 % 0 lf 1017,2 hPa 0,0 l/m 0,93 h 0,00 h 291 W/m 11,9 km/h (2 Bft) 96,87 %
09.07.2016 19:00 24,6 C 24,9 C 23,5 C 67 % 0 lf 1016,6 hPa 0,0 l/m 0,87 h 0,00 h 226 W/m 13,3 km/h (3 Bft) 97,51 %
09.07.2016 20:00 23,8 C 23,5 C 21,7 C 69 % 0 lf 1016,2 hPa 0,0 l/m 0,50 h 0,00 h 87 W/m 13,1 km/h (3 Bft) 95,09 %
09.07.2016 21:00 22,8 C 22,1 C 20,1 C 73 % 0 lf 1016,0 hPa 0,0 l/m 0,60 h 0,00 h 30 W/m 9,0 km/h (2 Bft) 95,30 %
09.07.2016 22:00 21,9 C 21,2 C 19,0 C 76 % 0 lf 1015,6 hPa 0,0 l/m 0,00 h 0,00 h 16 W/m 8,1 km/h (2 Bft) 97,47 %
09.07.2016 23:00 21,2 C 20,6 C 18,1 C 79 % 0 lf 1015,4 hPa 0,0 l/m 0,00 h 0,00 h 0 W/m 7,6 km/h (2 Bft) 96,23 %
10.07.2016 00:00 20,6 C 20,6 C 18,3 C 81 % 0 lf 1015,3 hPa 0,0 l/m 0,00 h 0,00 h 0 W/m 7,4 km/h (2 Bft) 95,81 %
10.07.2016 01:00 20,5 C 20,0 C 17,8 C 82 % 0 lf 1015,0 hPa 0,0 l/m 0,00 h 0,00 h 0 W/m 6,9 km/h (2 Bft) 95,58 %
10.07.2016 02:00 19,9 C 19,2 C 16,9 C 84 % 0 lf 1014,6 hPa 0,0 l/m 0,00 h 0,00 h 0 W/m 6,4 km/h (2 Bft) 97,07 %
10.07.2016 03:00 19,2 C 18,4 C 15,8 C 86 % 0 lf 1014,4 hPa 0,0 l/m 0,00 h 0,00 h 0 W/m 5,5 km/h (1 Bft) 95,51 %
10.07.2016 04:00 18,4 C 18,2 C 16,0 C 88 % 0 lf 1013,8 hPa 0,0 l/m 0,00 h 0,00 h 0 W/m 7,6 km/h (2 Bft) 95,62 %
10.07.2016 05:00 17,9 C 17,3 C 15,4 C 89 % 0 lf 1013,2 hPa 0,0 l/m 0,27 h 0,00 h 24 W/m 6,9 km/h (2 Bft) 96,51 %
10.07.2016 06:00 17,3 C 17,5 C 15,7 C 91 % 0 lf 1013,0 hPa 0,0 l/m 1,00 h 0,00 h 90 W/m 8,6 km/h (2 Bft) 97,58 %
10.07.2016 07:00 17,8 C 19,2 C 17,2 C 92 % 0 lf 1012,9 hPa 0,0 l/m 1,00 h 0,00 h 268 W/m 9,5 km/h (2 Bft) 94,72 %
10.07.2016 08:00 20,0 C 23,8 C 19,7 C 88 % 0 lf 1012,7 hPa 0,0 l/m 1,00 h 0,00 h 422 W/m 12,1 km/h (2 Bft) 97,16 %
10.07.2016 09:00 23,6 C 29,1 C 23,2 C 78 % 0 lf 1012,2 hPa 0,0 l/m 1,00 h 0,00 h 511 W/m 12,3 km/h (3 Bft) 95,50 %
10.07.2016 10:00 26,5 C 33,1 C 29,5 C 67 % 0 lf 1011,8 hPa 0,0 l/m 0,97 h 0,00 h 625 W/m 17,4 km/h (3 Bft) 96,96 %
10.07.2016 11:00 28,0 C 34,4 C 31,4 C 62 % 0 lf 1011,3 hPa 0,0 l/m 0,93 h 0,00 h 756 W/m 21,7 km/h (4 Bft) 95,80 %
10.07.2016 12:00 29,1 C 35,6 C 32,6 C 60 % 0 lf 1010,6 hPa 0,0 l/m 0,87 h 0,00 h 800 W/m 22,9 km/h (4 Bft) 95,20 %
10.07.2016 13:00 29,7 C 34,7 C 30,5 C 57 % 0 lf 1010,0 hPa 0,0 l/m 0,80 h 0,00 h 815 W/m 23,6 km/h (4 Bft) 97,44 %
10.07.2016 14:00 30,6 C 36,5 C 36,5 C 53 % 0 lf 1009,2 hPa 0,0 l/m 1,00 h 0,00 h 926 W/m 24,8 km/h (4 Bft) 96,30 %
10.07.2016 15:00 31,4 C 36,5 C 38,8 C 52 % 0 lf 1008,6 hPa 0,0 l/m 1,00 h 0,00 h 827 W/m 24,1 km/h (4 Bft) 93,63 %
10.07.2016 16:00 31,2 C 34,9 C 36,3 C 50 % 0 lf 1008,1 hPa 0,0 l/m 1,00 h 0,00 h 632 W/m 26,9 km/h (4 Bft) 99,15 %
10.07.2016 17:00 31,0 C 33,3 C 31,5 C 52 % 0 lf 1007,7 hPa 0,0 l/m 1,00 h 0,00 h 471 W/m 23,1 km/h (4 Bft) 95,62 %
10.07.2016 18:00 30,1 C 30,5 C 28,3 C 55 % 0 lf 1007,3 hPa 0,0 l/m 0,80 h 0,00 h 342 W/m 19,7 km/h (3 Bft) 94,42 %
10.07.2016 19:00 29,1 C 29,2 C 27,6 C 57 % 0 lf 1007,0 hPa 0,0 l/m 0,27 h 0,00 h 228 W/m 13,5 km/h (3 Bft) 97,22 %
10.07.2016 20:00 28,1 C 27,6 C 25,6 C 61 % 0 lf 1006,8 hPa 0,0 l/m 0,10 h 0,00 h 66 W/m 9,0 km/h (2 Bft) 97,25 %
10.07.2016 21:00 26,9 C 25,6 C 23,0 C 65 % 0 lf 1006,9 hPa 0,0 l/m 0,27 h 0,00 h 20 W/m 6,2 km/h (2 Bft) 95,07 %
10.07.2016 22:00 25,2 C 23,7 C 21,6 C 68 % 0 lf 1007,3 hPa 0,0 l/m 0,00 h 0,00 h 6 W/m 10,6 km/h (2 Bft) 96,96 %
10.07.2016 23:00 22,9 C 21,8 C 20,4 C 75 % 0 lf 1007,9 hPa 0,0 l/m 0,00 h 0,00 h 5 W/m 14,0 km/h (3 Bft) 95,95 %
Min-Datum _ 07.07.16 07.07.16 06.07.16 10.07.16 04.07.16 10.07.16 - - - - 04.07.16 08.07.16
_ Min-Zeit 06:26 05:02 04:22 16:32 00:00 20:16 - - - - 00:18 00:02
Minimum _ 9,7 C 8,3 C 8,3 C 48 % 0 lf 1006,7 hPa - - - - 0,0 km/h (0 Bft) 10,53 %
Max-Datum _ 10.07.16 10.07.16 10.07.16 06.07.16 04.07.16 07.07.16 04.07.16 04.07.16 04.07.16 10.07.16 05.07.16 04.07.16
_ Max-Zeit 15:28 15:20 15:20 06:24 15:40 08:00 16:16 05:50 13:54 15:18 18:24 00:32
Maximum _ 31,7 C 38,9 C 41,1 C 96 % 15 lf 1022,2 hPa 3,6 l/m 0,03 h 0,03 h 1148 W/m 43,9 km/h
W-NW (6 Bft)
100,00 %
Durchschnitt _ 19,4 C 20,9 C 19,1 C 77 % 1 lf 1016,9 hPa #5,6 l/m #69:52 h #1:34 h 293 W/m 11,5 km/h (2 Bft) 96,12 %
© 2016 W. Hausmann